Time;durP1;ratioP1;P1;durP2;ratioP2;P2;SDS_P1;SDS_P2;PMS_P1;PMS_P2;Temp;Humidity;BMP_temperature;BMP_pressure;BME280_temperature;BME280_humidity;BME280_pressure;Samples;Min_cycle;Max_cycle;Signal;HPM_P1;HPM_P2
2024/03/13 00:09:24;;;;;;;4.20;2.50;;;;;;;22.06;41.83;100406.03;4600996;27;20425;-48
2024/03/13 00:11:35;;;;;;;2.40;2.10;;;;;;;22.20;44.24;100415.75;4602796;27;20122;-49
2024/03/13 15:00:22;;;;;;;2.03;1.80;;;;;;;21.69;44.82;100480.34;4638983;27;20213;-55
2024/03/13 15:02:32;;;;;;;1.95;1.70;;;;;;;21.70;44.37;100476.28;4619257;27;20115;-50
2024/03/13 15:04:44;;;;;;;2.10;1.90;;;;;;;21.71;44.16;100477.94;4616037;27;20117;-50
2024/03/13 15:06:56;;;;;;;1.90;1.70;;;;;;;21.73;44.60;100480.44;4619740;27;20035;-48
2024/03/13 15:09:13;;;;;;;2.08;1.73;;;;;;;21.73;44.55;100487.03;4531656;27;224987;-48
2024/03/13 15:11:23;;;;;;;2.67;1.70;;;;;;;21.73;44.06;100489.06;4501423;28;20034;-48
2024/03/13 15:13:34;;;;;;;2.65;1.90;;;;;;;21.74;43.98;100482.13;4489925;28;20035;-52
2024/03/13 15:15:44;;;;;;;1.65;1.55;;;;;;;21.77;43.89;100484.28;4489864;28;20606;-49
2024/03/13 15:17:55;;;;;;;2.10;1.80;;;;;;;21.78;43.81;100489.63;4490638;28;20056;-48
2024/03/13 15:22:27;;;;;;;2.40;2.10;;;;;;;21.81;43.90;100483.13;4756274;23;20462;-52
2024/03/13 15:24:38;;;;;;;2.25;1.70;;;;;;;21.82;44.08;100483.94;4456067;28;20035;-48
2024/03/13 15:26:48;;;;;;;2.35;1.80;;;;;;;21.84;44.10;100479.50;4454787;28;20015;-49
2024/03/13 15:28:59;;;;;;;2.03;1.60;;;;;;;21.84;44.09;100479.50;4452793;28;20052;-49
2024/03/13 15:31:10;;;;;;;2.50;2.28;;;;;;;21.86;44.11;100482.00;4451381;28;20486;-47
2024/03/13 15:33:21;;;;;;;2.03;1.83;;;;;;;21.85;43.81;100477.47;4439216;28;20122;-49
2024/03/13 15:35:31;;;;;;;2.92;1.70;;;;;;;21.87;43.91;100481.63;4439980;28;20044;-51
2024/03/13 15:37:42;;;;;;;2.40;1.95;;;;;;;21.88;43.89;100480.38;4439673;28;20607;-52
2024/03/13 15:39:52;;;;;;;1.88;1.70;;;;;;;21.90;43.75;100482.88;4442510;28;20040;-49
2024/03/13 15:42:04;;;;;;;2.00;1.60;;;;;;;21.91;43.83;100479.63;4441535;28;20051;-53
2024/03/13 15:44:15;;;;;;;1.75;1.65;;;;;;;21.92;44.13;100483.34;4436481;28;20134;-49
2024/03/13 15:46:25;;;;;;;2.35;1.88;;;;;;;21.93;43.86;100485.00;4439672;28;20475;-52
2024/03/13 15:48:36;;;;;;;2.03;1.75;;;;;;;21.94;43.09;100483.81;4438578;28;20055;-50
2024/03/13 15:50:47;;;;;;;1.75;1.55;;;;;;;21.95;43.75;100477.66;4437643;28;20036;-49
2024/03/13 15:52:57;;;;;;;2.53;1.80;;;;;;;21.95;43.75;100480.53;4439000;28;20024;-52
2024/03/13 15:55:08;;;;;;;1.88;1.67;;;;;;;21.97;43.72;100486.75;4438875;28;20099;-52
2024/03/13 15:57:18;;;;;;;2.03;1.73;;;;;;;21.98;43.74;100490.44;4440348;28;20122;-50
2024/03/13 15:59:32;;;;;;;2.25;1.70;;;;;;;21.98;43.86;100488.41;4440829;28;20047;-52
2024/03/13 16:01:42;;;;;;;2.00;1.80;;;;;;;21.99;43.54;100487.19;4426764;28;20703;-51
2024/03/13 16:03:53;;;;;;;2.42;1.80;;;;;;;21.99;43.43;100484.31;4427644;28;20464;-54
2024/03/13 16:06:03;;;;;;;2.20;2.00;;;;;;;21.99;43.72;100484.31;4429194;28;20052;-50
2024/03/13 16:08:30;;;;;;;1.95;1.80;;;;;;;22.01;43.69;100481.06;4426725;28;20059;-48
2024/03/13 16:10:42;;;;;;;1.98;1.77;;;;;;;21.99;43.60;100478.56;4417055;28;20660;-58
2024/03/13 16:22:45;;;;;;;2.00;1.80;;;;;;;21.99;43.49;100487.19;4577819;23;20168;-53
2024/03/13 16:24:56;;;;;;;1.75;1.65;;;;;;;21.99;43.36;100481.44;4397216;29;20882;-56
2024/03/13 16:27:07;;;;;;;2.00;1.80;;;;;;;22.00;43.48;100482.28;4397432;29;20041;-56
2024/03/13 16:29:18;;;;;;;1.95;1.55;;;;;;;21.99;43.34;100487.19;4389515;29;20044;-56
2024/03/13 16:31:29;;;;;;;2.22;1.85;;;;;;;21.98;43.58;100476.06;4398471;29;20842;-56
2024/03/13 16:33:40;;;;;;;2.80;2.00;;;;;;;21.97;43.63;100481.00;4398786;29;20115;-53
2024/03/13 16:35:50;;;;;;;2.20;1.90;;;;;;;21.97;43.77;100481.00;4397911;29;20173;-56
2024/03/13 16:38:01;;;;;;;2.47;1.95;;;;;;;21.96;43.73;100479.31;4397855;29;20025;-55
2024/03/13 16:40:12;;;;;;;2.40;2.20;;;;;;;21.96;43.57;100484.25;4398469;29;20049;-54
2024/03/13 16:42:22;;;;;;;2.33;2.10;;;;;;;21.96;43.71;100478.50;4398344;29;20044;-55
2024/03/13 16:44:33;;;;;;;2.17;1.88;;;;;;;21.95;43.26;100480.53;4397013;29;20078;-56
2024/03/13 16:46:43;;;;;;;2.10;1.80;;;;;;;21.95;43.65;100482.56;4398858;29;20523;-56
2024/03/13 16:48:54;;;;;;;1.92;1.75;;;;;;;21.93;43.40;100480.09;4397819;29;20177;-57
2024/03/13 16:51:05;;;;;;;2.72;1.80;;;;;;;21.93;43.62;100491.59;4397879;29;20115;-58
2024/03/13 16:53:15;;;;;;;2.22;1.80;;;;;;;21.93;43.44;100487.88;4399071;29;20151;-56
2024/03/13 16:55:25;;;;;;;2.40;1.70;;;;;;;21.93;43.74;100485.00;4399163;29;20483;-56
2024/03/13 16:57:38;;;;;;;2.00;1.77;;;;;;;21.95;43.47;100488.31;4397931;29;20037;-57
2024/03/13 16:59:48;;;;;;;1.88;1.70;;;;;;;21.95;43.33;100486.28;4398090;29;20037;-56
2024/03/13 17:01:59;;;;;;;1.95;1.60;;;;;;;21.95;43.14;100492.03;4398611;29;20044;-58
2024/03/13 17:06:35;;;;;;;2.42;2.20;;;;;;;21.97;43.01;100504.00;4536192;23;20664;-57
2024/03/13 17:08:46;;;;;;;2.20;1.90;;;;;;;21.96;43.13;100508.06;4419359;28;20108;-56
2024/03/13 17:10:57;;;;;;;6.30;5.05;;;;;;;21.97;43.34;100500.28;4433894;28;20548;-57
2024/03/13 17:13:07;;;;;;;5.97;4.90;;;;;;;21.97;43.38;100508.91;4433916;28;20908;-58
2024/03/13 17:15:18;;;;;;;0.60;0.60;;;;;;;22.67;47.05;100518.13;4435486;28;20039;-58
2024/03/13 17:17:29;;;;;;;1.35;0.65;;;;;;;22.80;46.93;100517.53;4436248;28;20139;-57
2024/03/13 17:19:40;;;;;;;1.33;0.60;;;;;;;23.08;46.25;100526.66;4433576;28;20043;-56
2024/03/13 17:21:50;;;;;;;1.23;0.50;;;;;;;23.36;46.01;100517.66;4433654;28;20072;-57
2024/03/13 17:24:01;;;;;;;1.02;0.60;;;;;;;23.53;45.09;100525.78;4452071;28;20071;-59
2024/03/13 17:26:11;;;;;;;0.57;0.50;;;;;;;23.65;45.74;100522.66;4452285;28;20034;-58
2024/03/13 17:28:22;;;;;;;1.15;0.70;;;;;;;23.72;45.28;100525.66;4455196;28;20130;-59
2024/03/13 17:30:32;;;;;;;1.30;0.55;;;;;;;23.76;45.25;100517.84;4452463;28;20035;-59
2024/03/13 17:32:42;;;;;;;2.03;0.60;;;;;;;23.83;45.16;100528.66;4451255;28;20476;-58
2024/03/13 17:34:53;;;;;;;1.52;0.60;;;;;;;23.87;44.75;100530.38;4452645;28;20134;-58
2024/03/13 17:37:03;;;;;;;0.95;0.50;;;;;;;23.91;44.65;100525.50;4454515;28;20039;-58
2024/03/13 17:39:18;;;;;;;0.60;0.60;;;;;;;23.96;45.07;100530.88;4449880;28;20028;-61
2024/03/13 17:46:30;;;;;;;4.20;0.60;;;;;;;24.02;44.79;100532.25;4405337;28;20250;-59
2024/03/13 17:48:41;;;;;;;0.65;0.50;;;;;;;24.03;44.88;100533.91;4403186;29;20049;-59
2024/03/13 17:50:53;;;;;;;1.10;0.50;;;;;;;24.06;44.86;100529.41;4402508;29;20040;-55
2024/03/13 17:53:05;;;;;;;0.82;0.55;;;;;;;24.08;44.82;100535.59;4417465;28;20302;-57
2024/03/13 17:55:16;;;;;;;0.93;0.60;;;;;;;24.09;44.61;100543.03;4414917;28;20785;-57
2024/03/13 17:57:26;;;;;;;2.13;0.60;;;;;;;24.10;44.49;100538.94;4419342;28;20039;-58
2024/03/13 17:59:41;;;;;;;0.65;0.60;;;;;;;24.11;45.01;100547.19;4420422;28;20509;-55
2024/03/13 18:01:51;;;;;;;1.63;0.82;;;;;;;24.16;44.91;100551.78;4419888;28;20082;-58
2024/03/13 18:04:01;;;;;;;0.50;0.50;;;;;;;24.19;45.28;100548.94;4420618;28;20119;-57
2024/03/13 18:06:19;;;;;;;2.90;0.60;;;;;;;24.20;45.04;100556.38;4420860;28;20036;-57
2024/03/13 18:08:30;;;;;;;0.90;0.73;;;;;;;24.18;44.74;100552.22;4419544;28;20099;-57
2024/03/13 18:10:44;;;;;;;1.20;0.50;;;;;;;24.16;44.24;100551.78;4411360;28;20052;-58
2024/03/13 18:12:54;;;;;;;0.57;0.50;;;;;;;24.13;44.72;100553.41;4400826;29;20040;-58
2024/03/13 18:15:05;;;;;;;1.60;0.50;;;;;;;24.12;44.40;100554.63;4399632;29;20032;-58
2024/03/13 18:17:15;;;;;;;0.57;0.40;;;;;;;24.09;44.34;100561.16;4398942;29;20551;-58
2024/03/13 18:19:26;;;;;;;0.68;0.50;;;;;;;24.07;44.31;100551.25;4401163;29;20120;-58
2024/03/13 18:21:37;;;;;;;0.60;0.60;;;;;;;24.02;44.31;100549.56;4400929;29;20499;-57
2024/03/13 18:23:47;;;;;;;2.25;0.50;;;;;;;24.03;44.45;100554.09;4401388;29;20044;-58
2024/03/13 18:25:59;;;;;;;1.17;0.50;;;;;;;24.02;44.32;100549.56;4401561;29;20032;-57
2024/03/13 18:28:10;;;;;;;0.43;0.40;;;;;;;24.01;44.51;100559.41;4403019;29;20127;-56
2024/03/13 18:30:20;;;;;;;0.73;0.43;;;;;;;24.00;44.80;100549.13;4401875;29;20128;-58
2024/03/13 18:32:34;;;;;;;1.48;0.60;;;;;;;24.01;44.34;100553.66;4401865;29;20113;-56
2024/03/13 18:34:45;;;;;;;0.45;0.40;;;;;;;24.01;44.61;100542.13;4400593;29;20040;-58
2024/03/13 18:36:58;;;;;;;0.60;0.55;;;;;;;24.01;44.38;100547.88;4399680;29;20468;-58
2024/03/13 18:39:11;;;;;;;0.52;0.50;;;;;;;24.00;44.18;100546.22;4400809;29;20035;-58
2024/03/13 18:41:23;;;;;;;0.50;0.50;;;;;;;24.00;44.32;100556.94;4400937;29;20075;-56
2024/03/13 18:43:34;;;;;;;0.70;0.50;;;;;;;23.99;44.59;100561.84;4400121;29;20570;-58
2024/03/13 18:45:44;;;;;;;0.60;0.60;;;;;;;23.98;44.58;100560.19;4397179;29;20029;-57
2024/03/13 18:47:55;;;;;;;0.80;0.50;;;;;;;23.97;44.20;100547.03;4384379;29;20041;-57
2024/03/13 18:50:07;;;;;;;0.50;0.50;;;;;;;23.96;44.52;100556.84;4382722;29;20056;-56
2024/03/13 18:52:21;;;;;;;0.82;0.60;;;;;;;23.97;44.38;100558.56;4384396;29;20033;-58
2024/03/13 18:54:32;;;;;;;0.70;0.50;;;;;;;23.97;44.53;100564.31;4385301;29;20475;-53
2024/03/13 18:56:42;;;;;;;0.82;0.60;;;;;;;23.98;44.33;100559.34;4381601;29;20041;-57
2024/03/13 18:58:53;;;;;;;0.75;0.50;;;;;;;23.89;44.33;100562.53;4383867;29;20124;-57
2024/03/13 19:01:05;;;;;;;1.67;0.60;;;;;;;23.93;44.33;100572.03;4386608;29;20121;-55
2024/03/13 19:03:15;;;;;;;0.50;0.50;;;;;;;23.95;44.32;100566.72;4383085;29;20598;-57
2024/03/13 19:05:26;;;;;;;0.45;0.40;;;;;;;23.96;44.27;100576.22;4383962;29;20051;-58
2024/03/13 19:07:36;;;;;;;0.75;0.60;;;;;;;23.93;44.40;100579.88;4385120;29;20030;-58
2024/03/13 19:09:47;;;;;;;0.65;0.60;;;;;;;23.94;44.33;100564.22;4385267;29;20073;-59
2024/03/13 19:11:57;;;;;;;0.50;0.50;;;;;;;23.94;44.52;100573.72;4401366;29;20041;-57
2024/03/13 19:14:08;;;;;;;1.38;0.57;;;;;;;23.95;44.27;100565.88;4418147;28;20032;-57
2024/03/13 19:16:18;;;;;;;0.70;0.40;;;;;;;23.95;44.21;100571.66;4399206;29;20440;-59
2024/03/13 19:18:29;;;;;;;0.85;0.50;;;;;;;23.94;44.47;100576.59;4400980;29;20411;-58
2024/03/13 19:20:40;;;;;;;0.70;0.50;;;;;;;23.95;44.17;100577.41;4397417;29;20040;-58
2024/03/13 19:22:50;;;;;;;0.57;0.57;;;;;;;23.94;44.19;100565.06;4399733;29;20036;-57
2024/03/13 19:25:00;;;;;;;0.57;0.50;;;;;;;23.92;44.36;100573.28;4397216;29;20093;-57
2024/03/13 19:27:12;;;;;;;0.80;0.55;;;;;;;23.91;44.27;100576.53;4400420;29;20041;-57
2024/03/13 19:29:23;;;;;;;0.82;0.60;;;;;;;23.90;44.10;100575.69;4400244;29;20044;-58
2024/03/13 19:31:34;;;;;;;0.70;0.50;;;;;;;23.90;44.20;100569.94;4398020;29;20045;-58
2024/03/13 19:33:45;;;;;;;0.40;0.40;;;;;;;23.88;44.32;100562.91;4397438;29;20041;-58
2024/03/13 19:35:55;;;;;;;0.80;0.65;;;;;;;23.87;44.21;100570.72;4398654;29;21147;-57
2024/03/13 19:38:06;;;;;;;0.52;0.50;;;;;;;23.86;44.31;100568.22;4401120;29;20076;-58
2024/03/13 19:40:16;;;;;;;0.50;0.50;;;;;;;23.84;44.27;100565.75;4400823;29;20084;-56
2024/03/13 19:42:27;;;;;;;0.68;0.68;;;;;;;23.82;44.14;100567.38;4399427;29;20099;-57
2024/03/13 19:44:38;;;;;;;0.90;0.47;;;;;;;23.82;44.08;100564.47;4400798;29;20037;-55
2024/03/13 19:46:49;;;;;;;1.13;0.60;;;;;;;23.81;44.38;100566.53;4387465;29;20042;-57
2024/03/13 19:48:59;;;;;;;1.25;0.50;;;;;;;23.81;43.92;100566.53;4384192;29;20037;-57
2024/03/13 19:51:10;;;;;;;0.98;0.50;;;;;;;23.78;44.08;100575.13;4398060;29;21211;-60
2024/03/13 19:53:20;;;;;;;0.50;0.50;;;;;;;23.65;44.57;100574.50;4384574;29;20550;-53
2024/03/13 19:55:31;;;;;;;0.43;0.43;;;;;;;23.55;44.71;100569.41;4381394;29;20030;-54
2024/03/13 19:57:41;;;;;;;0.43;0.43;;;;;;;23.47;45.28;100564.75;4384136;29;20055;-57
2024/03/13 19:59:52;;;;;;;0.50;0.50;;;;;;;23.43;45.10;100569.66;4399630;29;20460;-55
2024/03/13 20:02:03;;;;;;;0.95;0.50;;;;;;;23.39;45.34;100574.50;4385804;29;20149;-56
2024/03/13 20:04:14;;;;;;;0.50;0.50;;;;;;;23.35;45.39;100562.94;4383364;29;20036;-55
2024/03/13 20:06:24;;;;;;;0.60;0.57;;;;;;;23.33;45.40;100556.72;4383745;29;20029;-57
2024/03/13 20:08:34;;;;;;;0.65;0.55;;;;;;;23.32;45.03;100560.84;4384691;29;20044;-55
2024/03/13 20:10:45;;;;;;;0.55;0.55;;;;;;;23.30;45.43;100557.50;4383108;29;20106;-57
2024/03/13 20:12:55;;;;;;;0.70;0.65;;;;;;;23.29;45.44;100555.81;4383516;29;20045;-56
2024/03/13 20:15:07;;;;;;;0.70;0.50;;;;;;;23.27;45.37;100561.16;4386279;29;20037;-54
2024/03/13 20:17:17;;;;;;;0.63;0.57;;;;;;;23.32;45.39;100560.84;4384277;29;20037;-59
2024/03/13 20:19:27;;;;;;;0.50;0.50;;;;;;;23.43;45.12;100563.88;4398082;29;20040;-56
2024/03/13 20:21:38;;;;;;;0.77;0.50;;;;;;;23.49;44.59;100565.22;4399178;29;20498;-56
2024/03/13 20:23:48;;;;;;;0.52;0.50;;;;;;;23.51;44.71;100560.75;4383372;29;20059;-56
2024/03/13 20:25:59;;;;;;;0.40;0.40;;;;;;;23.59;44.39;100559.59;4383034;29;20618;-57
2024/03/13 20:28:12;;;;;;;0.50;0.50;;;;;;;23.56;44.64;100554.63;4398224;29;20036;-56
2024/03/13 20:30:22;;;;;;;0.50;0.50;;;;;;;23.58;44.55;100557.09;4399147;29;20060;-56
2024/03/13 20:32:34;;;;;;;0.40;0.40;;;;;;;23.58;44.29;100563.72;4381678;29;20072;-56
2024/03/13 20:34:44;;;;;;;0.50;0.50;;;;;;;23.58;44.54;100557.09;4382518;29;20033;-56
2024/03/13 20:36:55;;;;;;;0.50;0.50;;;;;;;23.58;44.64;100557.09;4384144;29;20041;-54
2024/03/13 20:39:05;;;;;;;0.60;0.52;;;;;;;23.58;44.32;100562.88;4383643;29;21242;-55
2024/03/13 20:41:16;;;;;;;0.65;0.60;;;;;;;23.56;44.10;100559.56;4398082;29;20119;-53
2024/03/13 20:43:26;;;;;;;0.47;0.47;;;;;;;23.55;44.32;100557.88;4397195;29;20058;-56
2024/03/13 20:45:37;;;;;;;0.50;0.50;;;;;;;23.54;44.58;100562.00;4380734;29;20688;-57
2024/03/13 20:47:48;;;;;;;1.92;1.63;;;;;;;23.09;42.07;100556.28;4382278;29;20041;-53
2024/03/13 20:49:59;;;;;;;1.90;1.80;;;;;;;22.84;40.00;100552.13;4382265;29;20128;-54
2024/03/13 20:52:09;;;;;;;2.10;1.85;;;;;;;22.71;39.29;100556.41;4381124;29;20586;-54
2024/03/13 20:54:20;;;;;;;1.73;1.63;;;;;;;22.61;38.83;100557.06;4382120;29;20042;-52
2024/03/13 20:56:31;;;;;;;2.50;2.10;;;;;;;22.53;38.89;100555.25;4385366;29;20076;-55
2024/03/13 20:58:43;;;;;;;1.90;1.70;;;;;;;22.46;39.31;100561.66;4383512;29;20045;-52
2024/03/13 21:00:53;;;;;;;2.58;2.03;;;;;;;22.41;39.29;100552.50;4384192;29;20042;-54
2024/03/13 21:03:04;;;;;;;2.35;2.10;;;;;;;22.37;39.40;100546.72;4382388;29;20073;-52
2024/03/13 21:05:15;;;;;;;2.17;1.98;;;;;;;22.34;39.53;100550.34;4384066;29;20124;-53
2024/03/13 21:07:27;;;;;;;2.72;2.00;;;;;;;22.31;39.60;100548.19;4383505;29;20491;-53
2024/03/13 21:09:37;;;;;;;1.75;1.65;;;;;;;22.29;39.79;100549.81;4384389;29;20053;-54
2024/03/13 21:11:48;;;;;;;2.42;2.00;;;;;;;22.27;39.48;100552.22;4384619;29;20417;-55
2024/03/13 21:13:59;;;;;;;1.98;1.80;;;;;;;22.26;39.64;100547.69;4383497;29;20021;-55
2024/03/13 21:16:11;;;;;;;2.67;1.95;;;;;;;22.24;39.38;100542.31;4384400;29;20030;-55
2024/03/13 21:18:29;;;;;;;2.13;1.92;;;;;;;22.22;39.64;100544.75;4381458;29;20093;-56
2024/03/13 21:20:39;;;;;;;2.63;2.13;;;;;;;22.21;39.33;100549.66;4381411;29;20140;-52
2024/03/13 21:22:50;;;;;;;3.00;2.10;;;;;;;22.20;39.45;100544.28;4382807;29;20033;-52
2024/03/13 21:25:03;;;;;;;2.50;2.17;;;;;;;22.19;39.31;100539.75;4386123;29;20514;-52
2024/03/13 21:27:14;;;;;;;2.60;2.20;;;;;;;22.18;39.60;100543.84;4398219;29;20033;-53
2024/03/13 21:29:24;;;;;;;4.20;3.40;;;;;;;22.16;39.77;100541.34;4383413;29;20061;-54
2024/03/13 21:31:36;;;;;;;3.10;2.42;;;;;;;22.16;39.50;100547.09;4382622;29;20029;-53
2024/03/13 21:33:47;;;;;;;3.25;2.60;;;;;;;22.15;39.72;100545.41;4396805;29;20045;-52
2024/03/13 21:35:57;;;;;;;2.80;2.60;;;;;;;22.16;39.52;100540.50;4382970;29;20041;-52
2024/03/13 21:38:08;;;;;;;2.28;2.08;;;;;;;22.14;39.63;100542.94;4398053;29;20055;-51
2024/03/13 21:40:18;;;;;;;2.63;2.30;;;;;;;22.13;39.69;100542.13;4382843;29;20041;-54
2024/03/13 21:42:30;;;;;;;2.47;2.28;;;;;;;22.13;39.63;100541.28;4383814;29;20118;-52
2024/03/13 21:44:41;;;;;;;2.55;2.30;;;;;;;22.13;39.58;100541.28;4382026;29;20037;-53
2024/03/13 21:46:51;;;;;;;2.40;2.10;;;;;;;22.12;39.23;100540.44;4397315;29;20069;-52
2024/03/13 21:49:02;;;;;;;2.60;2.05;;;;;;;22.11;39.48;100544.53;4384240;29;20232;-53
2024/03/13 21:51:15;;;;;;;2.47;2.17;;;;;;;22.09;39.22;100541.19;4397366;29;20585;-52
2024/03/13 21:53:26;;;;;;;2.83;2.30;;;;;;;22.09;39.59;100538.31;4381461;29;20041;-52
2024/03/13 21:55:36;;;;;;;2.35;2.05;;;;;;;22.10;39.47;100537.09;4399779;29;20055;-54
2024/03/13 21:57:46;;;;;;;2.05;1.85;;;;;;;22.09;39.33;100535.44;4382217;29;20058;-56
2024/03/13 21:59:58;;;;;;;2.28;1.90;;;;;;;22.07;39.27;100537.06;4381970;29;20447;-54
2024/03/13 22:02:08;;;;;;;2.28;2.08;;;;;;;22.07;39.22;100539.94;4383595;29;20677;-58
2024/03/13 22:04:20;;;;;;;2.25;1.80;;;;;;;22.06;39.33;100533.34;4382751;29;20071;-54
2024/03/13 22:06:31;;;;;;;2.20;1.80;;;;;;;22.06;39.11;100547.69;4382486;29;20041;-54
2024/03/13 22:08:42;;;;;;;1.90;1.70;;;;;;;22.05;38.95;100540.31;4398092;29;20052;-54
2024/03/13 22:10:52;;;;;;;1.88;1.70;;;;;;;22.06;38.96;100536.22;4382376;29;20798;-55
2024/03/13 22:13:03;;;;;;;2.08;1.88;;;;;;;22.04;39.02;100532.88;4400972;29;20037;-55
2024/03/13 22:15:14;;;;;;;2.05;1.83;;;;;;;22.04;39.17;100529.19;4382115;29;20037;-53
2024/03/13 22:17:25;;;;;;;2.20;2.00;;;;;;;22.04;39.06;100527.13;4382197;29;20039;-55
2024/03/13 22:19:37;;;;;;;2.20;1.98;;;;;;;22.03;39.05;100525.47;4381753;29;20044;-53
2024/03/13 22:21:48;;;;;;;2.30;2.10;;;;;;;22.02;39.53;100529.53;4383706;29;20041;-55
2024/03/13 22:23:58;;;;;;;2.35;2.15;;;;;;;22.03;39.13;100524.63;4381595;29;20033;-57
2024/03/13 22:26:08;;;;;;;2.53;2.33;;;;;;;22.02;39.33;100522.97;4380644;29;20046;-53
2024/03/13 22:28:19;;;;;;;3.25;2.78;;;;;;;22.01;39.40;100525.00;4381942;29;20571;-53
2024/03/13 22:30:29;;;;;;;2.65;2.30;;;;;;;22.00;39.37;100523.34;4382998;29;20029;-54
2024/03/13 22:32:40;;;;;;;2.85;2.47;;;;;;;21.99;39.42;100527.41;4381962;29;20125;-52
2024/03/13 22:34:50;;;;;;;2.78;2.50;;;;;;;21.99;39.58;100524.53;4381344;29;20590;-51
2024/03/13 22:37:00;;;;;;;3.10;2.80;;;;;;;21.99;40.00;100527.41;4380412;29;20140;-50
2024/03/13 22:39:13;;;;;;;3.75;2.80;;;;;;;21.99;39.72;100521.66;4381802;29;20045;-52
2024/03/13 22:41:24;;;;;;;2.83;2.45;;;;;;;21.98;39.65;100522.91;4381610;29;20037;-51
2024/03/13 22:43:34;;;;;;;3.10;2.80;;;;;;;21.99;39.96;100515.13;4381525;29;20136;-50
2024/03/13 22:45:45;;;;;;;2.90;2.50;;;;;;;21.98;39.96;100516.31;4382673;29;20411;-51
2024/03/13 22:47:55;;;;;;;3.40;2.92;;;;;;;21.98;39.94;100522.06;4381901;29;20045;-54
2024/03/13 22:50:06;;;;;;;4.07;3.33;;;;;;;21.97;40.18;100514.66;4382714;29;20033;-54
2024/03/13 22:52:16;;;;;;;4.80;3.78;;;;;;;21.97;39.79;100514.66;4384141;29;20048;-53
2024/03/13 22:54:26;;;;;;;3.78;3.22;;;;;;;21.96;40.20;100513.81;4382433;29;20572;-54
2024/03/13 22:56:37;;;;;;;3.50;3.20;;;;;;;21.96;40.14;100516.69;4382892;29;20045;-53
2024/03/13 22:58:47;;;;;;;3.97;3.40;;;;;;;21.95;39.71;100512.16;4382677;29;20048;-54
2024/03/13 23:00:58;;;;;;;3.67;3.28;;;;;;;21.94;40.53;100513.38;4396128;29;20125;-53
2024/03/13 23:03:08;;;;;;;3.65;3.17;;;;;;;21.94;39.85;100510.50;4401613;29;20067;-51
2024/03/13 23:05:19;;;;;;;3.55;3.10;;;;;;;21.95;39.67;100512.16;4381162;29;20072;-51
2024/03/13 23:07:30;;;;;;;3.53;3.00;;;;;;;21.94;39.83;100513.38;4381944;29;20806;-54
2024/03/13 23:09:40;;;;;;;3.80;3.00;;;;;;;21.93;39.88;100514.56;4381600;29;20069;-53
2024/03/13 23:11:52;;;;;;;3.85;2.85;;;;;;;21.92;39.71;100512.91;4384627;29;20113;-54
2024/03/13 23:14:04;;;;;;;3.78;3.20;;;;;;;21.92;39.63;100520.69;4384203;29;20035;-53
2024/03/13 23:16:14;;;;;;;4.00;3.45;;;;;;;21.92;40.21;100515.78;4384313;29;20060;-54
2024/03/13 23:18:27;;;;;;;4.03;3.20;;;;;;;21.91;39.72;100519.03;4382720;29;20546;-52
2024/03/13 23:20:38;;;;;;;4.25;3.40;;;;;;;21.91;39.67;100528.47;4384621;29;21302;-53
2024/03/13 23:22:51;;;;;;;4.10;3.30;;;;;;;21.91;40.08;100524.78;4383750;29;20048;-54
2024/03/13 23:25:02;;;;;;;4.03;3.47;;;;;;;21.90;39.94;100521.09;4383267;29;20029;-54
2024/03/13 23:27:13;;;;;;;4.70;3.80;;;;;;;21.89;40.11;100513.69;4398811;29;20037;-53
2024/03/13 23:29:23;;;;;;;3.67;3.28;;;;;;;21.90;39.69;100523.13;4400046;29;20121;-53
2024/03/13 23:31:34;;;;;;;4.35;3.47;;;;;;;21.90;40.07;100525.97;4384856;29;20526;-53
2024/03/13 23:33:44;;;;;;;4.45;3.53;;;;;;;21.90;39.57;100526.81;4383827;29;20021;-53
2024/03/13 23:35:55;;;;;;;4.30;3.60;;;;;;;21.88;39.86;100523.50;4386188;29;20041;-56
2024/03/13 23:38:05;;;;;;;4.00;3.25;;;;;;;21.88;39.54;100517.75;4386782;29;20495;-53
2024/03/13 23:40:16;;;;;;;3.65;3.28;;;;;;;21.88;39.56;100512.00;4385223;29;20622;-53
2024/03/13 23:42:38;;;;;;;4.30;3.35;;;;;;;21.88;39.63;100509.13;4382944;29;20097;-53
2024/03/13 23:44:49;;;;;;;4.07;3.03;;;;;;;21.87;39.73;100498.84;4384291;29;20041;-52
2024/03/13 23:46:59;;;;;;;3.47;3.17;;;;;;;21.87;39.71;100504.59;4382451;29;20495;-53
2024/03/13 23:49:10;;;;;;;3.55;2.95;;;;;;;21.87;39.77;100501.72;4396552;29;22277;-54
2024/03/13 23:51:23;;;;;;;3.92;3.15;;;;;;;21.86;39.47;100502.94;4397516;29;20039;-56
2024/03/13 23:53:34;;;;;;;3.70;3.15;;;;;;;21.86;39.41;100493.47;4399825;29;20871;-53
2024/03/13 23:55:44;;;;;;;3.80;3.20;;;;;;;21.86;39.60;100502.09;4385526;29;20041;-52
2024/03/13 23:57:55;;;;;;;4.10;3.25;;;;;;;21.85;39.21;100495.50;4386595;29;20084;-54
